Time;durP1;ratioP1;P1;durP2;ratioP2;P2;SDS_P1;SDS_P2;PMS_P1;PMS_P2;Temp;Humidity;BMP_temperature;BMP_pressure;BME280_temperature;BME280_humidity;BME280_pressure;Samples;Min_cycle;Max_cycle;Signal;HPM_P1;HPM_P2
2023/06/10 00:00:41;;;;;;;6;5.4;;;;;;;;;;;;;
2023/06/10 00:03:06;;;;;;;6;5.4;;;;;;;;;;;;;
2023/06/10 00:05:31;;;;;;;6.5;5.8;;;;;;;;;;;;;
2023/06/10 00:07:57;;;;;;;6.3;5.7;;;;;;;;;;;;;
2023/06/10 00:10:22;;;;;;;7.3;5.8;;;;;;;;;;;;;
2023/06/10 00:12:48;;;;;;;5.9;5.3;;;;;;;;;;;;;
2023/06/10 00:15:13;;;;;;;7;6.1;;;;;;;;;;;;;
2023/06/10 00:17:40;;;;;;;6.6;5.6;;;;;;;;;;;;;
2023/06/10 00:20:08;;;;;;;7.8;6;;;;;;;;;;;;;
2023/06/10 00:22:32;;;;;;;6.7;5.7;;;;;;;;;;;;;
2023/06/10 00:24:56;;;;;;;6.8;5.9;;;;;;;;;;;;;
2023/06/10 00:27:21;;;;;;;7;5.9;;;;;;;;;;;;;
2023/06/10 00:29:46;;;;;;;6.3;5.7;;;;;;;;;;;;;
2023/06/10 00:32:11;;;;;;;6.3;5.7;;;;;;;;;;;;;
2023/06/10 00:34:37;;;;;;;7.3;6;;;;;;;;;;;;;
2023/06/10 00:37:02;;;;;;;6.3;5.7;;;;;;;;;;;;;
2023/06/10 00:39:27;;;;;;;6.2;5.6;;;;;;;;;;;;;
2023/06/10 00:41:53;;;;;;;6.2;5.4;;;;;;;;;;;;;
2023/06/10 00:44:18;;;;;;;6.5;5.7;;;;;;;;;;;;;
2023/06/10 00:46:46;;;;;;;7.7;5.8;;;;;;;;;;;;;
2023/06/10 00:49:11;;;;;;;7.9;5.7;;;;;;;;;;;;;
2023/06/10 00:51:37;;;;;;;6.6;5.8;;;;;;;;;;;;;
2023/06/10 00:54:02;;;;;;;7.3;5.3;;;;;;;;;;;;;
2023/06/10 00:56:28;;;;;;;6.9;5.8;;;;;;;;;;;;;
2023/06/10 00:58:52;;;;;;;6.2;5.4;;;;;;;;;;;;;
2023/06/10 01:01:19;;;;;;;10.4;6.1;;;;;;;;;;;;;
2023/06/10 01:03:45;;;;;;;6.3;5.5;;;;;;;;;;;;;
2023/06/10 01:06:09;;;;;;;6.2;5.5;;;;;;;;;;;;;
2023/06/10 01:08:35;;;;;;;6.4;5.6;;;;;;;;;;;;;
2023/06/10 01:10:59;;;;;;;6.4;5.8;;;;;;;;;;;;;
2023/06/10 01:13:28;;;;;;;6;5.4;;;;;;;;;;;;;
2023/06/10 01:15:51;;;;;;;7.6;6.1;;;;;;;;;;;;;
2023/06/10 01:18:16;;;;;;;6;5.4;;;;;;;;;;;;;
2023/06/10 01:20:42;;;;;;;6.8;5.6;;;;;;;;;;;;;
2023/06/10 01:23:07;;;;;;;6.8;5.7;;;;;;;;;;;;;
2023/06/10 01:25:33;;;;;;;6.7;5.7;;;;;;;;;;;;;
2023/06/10 01:27:59;;;;;;;6.1;5.5;;;;;;;;;;;;;
2023/06/10 01:30:25;;;;;;;6.7;5.9;;;;;;;;;;;;;
2023/06/10 01:32:49;;;;;;;6.7;6;;;;;;;;;;;;;
2023/06/10 01:35:16;;;;;;;8;5.7;;;;;;;;;;;;;
2023/06/10 01:37:41;;;;;;;8.5;6.4;;;;;;;;;;;;;
2023/06/10 01:40:06;;;;;;;6.5;5.8;;;;;;;;;;;;;
2023/06/10 01:42:31;;;;;;;6.6;5.7;;;;;;;;;;;;;
2023/06/10 01:44:59;;;;;;;6.4;5.8;;;;;;;;;;;;;
2023/06/10 01:47:24;;;;;;;6;5.4;;;;;;;;;;;;;
2023/06/10 01:49:50;;;;;;;6.4;5.7;;;;;;;;;;;;;
2023/06/10 01:52:15;;;;;;;6.9;6.2;;;;;;;;;;;;;
2023/06/10 01:54:40;;;;;;;7.4;6.1;;;;;;;;;;;;;
2023/06/10 01:57:06;;;;;;;7;5.8;;;;;;;;;;;;;
2023/06/10 01:59:31;;;;;;;7.1;5.6;;;;;;;;;;;;;
2023/06/10 02:01:56;;;;;;;7.6;5.8;;;;;;;;;;;;;
2023/06/10 02:04:21;;;;;;;10.1;6.3;;;;;;;;;;;;;
2023/06/10 02:06:46;;;;;;;8.4;6.4;;;;;;;;;;;;;
2023/06/10 02:09:12;;;;;;;7.9;5.7;;;;;;;;;;;;;
2023/06/10 02:11:38;;;;;;;6.4;5.8;;;;;;;;;;;;;
2023/06/10 02:14:03;;;;;;;7.1;6.1;;;;;;;;;;;;;
2023/06/10 02:16:28;;;;;;;7.1;6;;;;;;;;;;;;;
2023/06/10 02:18:54;;;;;;;6.8;5.5;;;;;;;;;;;;;
2023/06/10 02:21:19;;;;;;;7.2;5.6;;;;;;;;;;;;;
2023/06/10 02:23:44;;;;;;;7;5.7;;;;;;;;;;;;;
2023/06/10 02:26:12;;;;;;;7.5;5.5;;;;;;;;;;;;;
2023/06/10 02:28:37;;;;;;;6.4;5.8;;;;;;;;;;;;;
2023/06/10 02:31:03;;;;;;;6.3;5.7;;;;;;;;;;;;;
2023/06/10 02:33:28;;;;;;;7.1;6.2;;;;;;;;;;;;;
2023/06/10 02:35:53;;;;;;;8.8;6.6;;;;;;;;;;;;;
2023/06/10 02:38:18;;;;;;;7.7;6.1;;;;;;;;;;;;;
2023/06/10 02:40:45;;;;;;;7.2;6.1;;;;;;;;;;;;;
2023/06/10 02:43:10;;;;;;;7.7;6.1;;;;;;;;;;;;;
2023/06/10 02:45:36;;;;;;;6.9;6.2;;;;;;;;;;;;;
2023/06/10 02:48:01;;;;;;;7.3;5.9;;;;;;;;;;;;;
2023/06/10 02:50:27;;;;;;;6.9;6;;;;;;;;;;;;;
2023/06/10 02:52:52;;;;;;;6.3;5.7;;;;;;;;;;;;;
2023/06/10 02:55:21;;;;;;;6.6;5.9;;;;;;;;;;;;;
2023/06/10 02:57:46;;;;;;;8;5.7;;;;;;;;;;;;;
2023/06/10 03:00:14;;;;;;;7.3;6.3;;;;;;;;;;;;;
2023/06/10 03:02:38;;;;;;;6.6;5.8;;;;;;;;;;;;;
2023/06/10 03:05:03;;;;;;;7.2;5.7;;;;;;;;;;;;;
2023/06/10 03:07:28;;;;;;;5.9;5.3;;;;;;;;;;;;;
2023/06/10 03:09:54;;;;;;;7.1;6.3;;;;;;;;;;;;;
2023/06/10 03:12:19;;;;;;;8.2;6.1;;;;;;;;;;;;;
2023/06/10 03:14:45;;;;;;;7.1;5.4;;;;;;;;;;;;;
2023/06/10 03:17:10;;;;;;;6.9;6;;;;;;;;;;;;;
2023/06/10 03:19:37;;;;;;;10.4;6.4;;;;;;;;;;;;;
2023/06/10 03:22:02;;;;;;;6.8;5.9;;;;;;;;;;;;;
2023/06/10 03:24:27;;;;;;;7.7;6.7;;;;;;;;;;;;;
2023/06/10 03:26:53;;;;;;;7.4;6.4;;;;;;;;;;;;;
2023/06/10 03:29:19;;;;;;;9.5;6.1;;;;;;;;;;;;;
2023/06/10 03:31:44;;;;;;;8.2;6.3;;;;;;;;;;;;;
2023/06/10 03:34:09;;;;;;;6.1;5.5;;;;;;;;;;;;;
2023/06/10 03:36:37;;;;;;;6.4;5.8;;;;;;;;;;;;;
2023/06/10 03:39:01;;;;;;;6.6;5.7;;;;;;;;;;;;;
2023/06/10 03:41:27;;;;;;;7;6.3;;;;;;;;;;;;;
2023/06/10 03:43:53;;;;;;;6.7;6.1;;;;;;;;;;;;;
2023/06/10 03:46:18;;;;;;;7.4;6.1;;;;;;;;;;;;;
2023/06/10 03:48:43;;;;;;;8.7;6.3;;;;;;;;;;;;;
2023/06/10 03:51:08;;;;;;;6.8;6.1;;;;;;;;;;;;;
2023/06/10 03:53:35;;;;;;;7.1;5.9;;;;;;;;;;;;;
2023/06/10 03:56:00;;;;;;;12.4;6.3;;;;;;;;;;;;;
2023/06/10 03:58:25;;;;;;;8.6;5.8;;;;;;;;;;;;;
2023/06/10 04:02:34;;;;;;;8;6.3;;;;;;;13.66;87.58398;934.2285;;;;
2023/06/10 04:05:06;;;;;;;7.4;6.2;;;;;;;13.64;87.06348;934.2286;;;;
2023/06/10 04:07:30;;;;;;;7.3;6.6;;;;;;;13.61;87.41211;934.2645;;;;
2023/06/10 04:09:57;;;;;;;7.5;6.1;;;;;;;13.56;87.80566;934.2178;;;;
2023/06/10 04:12:22;;;;;;;7.5;6.1;;;;;;;13.49;87.78027;934.2648;;;;
2023/06/10 04:14:52;;;;;;;7.2;6;;;;;;;13.54;87.76758;934.3028;;;;
2023/06/10 04:17:16;;;;;;;8;5.8;;;;;;;13.48;87.7334;934.272;;;;
2023/06/10 04:19:43;;;;;;;8.9;6.3;;;;;;;13.41;88.04102;934.29;;;;
2023/06/10 04:22:09;;;;;;;11.1;6;;;;;;;13.39;88.33398;934.2941;;;;
2023/06/10 04:24:36;;;;;;;10.2;6;;;;;;;13.49;87.91797;934.204;;;;
2023/06/10 04:27:03;;;;;;;7.5;6.1;;;;;;;13.5;87.72461;934.3423;;;;
2023/06/10 04:29:26;;;;;;;9.2;6;;;;;;;13.5;87.56348;934.3167;;;;
2023/06/10 04:31:57;;;;;;;9;5.7;;;;;;;13.48;87.89258;934.2745;;;;
2023/06/10 04:34:25;;;;;;;7.9;6;;;;;;;13.51;87.72754;934.259;;;;
2023/06/10 04:36:50;;;;;;;8.5;6.2;;;;;;;13.54;87.7334;934.2996;;;;
2023/06/10 04:39:17;;;;;;;6.2;5.6;;;;;;;13.51;87.50977;934.3582;;;;
2023/06/10 04:41:46;;;;;;;6.4;5.5;;;;;;;13.54;87.43457;934.3675;;;;
2023/06/10 04:44:13;;;;;;;7.9;6.1;;;;;;;13.63;87.0293;934.3295;;;;
2023/06/10 04:46:36;;;;;;;8.9;6.1;;;;;;;13.73;86.77051;934.3582;;;;
2023/06/10 04:49:02;;;;;;;9.4;6;;;;;;;13.83;86.125;934.3416;;;;
2023/06/10 04:51:27;;;;;;;8.7;5.6;;;;;;;13.88;85.78906;934.3427;;;;
2023/06/10 04:53:58;;;;;;;7.2;6.2;;;;;;;13.92;85.6123;934.4055;;;;
2023/06/10 04:56:23;;;;;;;7.4;6.1;;;;;;;13.81;86.40723;934.3879;;;;
2023/06/10 04:58:48;;;;;;;6.1;5.5;;;;;;;13.85;86.33594;934.3878;;;;
2023/06/10 05:01:15;;;;;;;8;6.3;;;;;;;14.03;86.78223;934.3328;;;;
2023/06/10 05:03:40;;;;;;;5.3;4.8;;;;;;;14.88;83.75879;934.397;;;;
2023/06/10 05:06:08;;;;;;;5.1;4.4;;;;;;;16.24;76.87109;934.344;;;;
2023/06/10 05:08:33;;;;;;;5.5;4.5;;;;;;;17.59;72.41895;934.3392;;;;
2023/06/10 05:11:01;;;;;;;5.5;4.3;;;;;;;18.35;68.15137;934.3542;;;;
2023/06/10 05:13:55;;;;;;;6.4;4.1;;;;;;;18.96;66.09277;934.3167;;;;
2023/06/10 05:16:22;;;;;;;5.7;4.2;;;;;;;19.88;62.41602;934.2239;;;;
2023/06/10 05:18:47;;;;;;;5.1;4.6;;;;;;;20.69;59.78418;934.2491;;;;
2023/06/10 05:21:16;;;;;;;4.7;3.7;;;;;;;21.35;57.65137;934.2346;;;;
2023/06/10 05:23:41;;;;;;;5.9;4.2;;;;;;;21.65;55.78027;934.2493;;;;
2023/06/10 05:26:10;;;;;;;5.1;3.9;;;;;;;21.98;55.19922;934.1765;;;;
2023/06/10 05:28:35;;;;;;;6.6;4.2;;;;;;;21.67;55.44336;934.2128;;;;
2023/06/10 05:31:03;;;;;;;4.6;3.8;;;;;;;22.58;53.20898;934.1906;;;;
2023/06/10 05:33:29;;;;;;;4.1;3.5;;;;;;;23.09;51.91895;934.1822;;;;
2023/06/10 05:35:59;;;;;;;4.9;3.8;;;;;;;23.81;49.01367;934.2056;;;;
2023/06/10 05:38:29;;;;;;;4.1;3.4;;;;;;;23.88;51.03418;934.2495;;;;
2023/06/10 05:41:00;;;;;;;6.1;3.8;;;;;;;24.59;47.44922;934.2332;;;;
2023/06/10 05:43:29;;;;;;;4.2;3.8;;;;;;;24.16;47.3916;934.2136;;;;
2023/06/10 05:45:54;;;;;;;4.2;3.8;;;;;;;25.32;45.54297;934.1687;;;;
2023/06/10 05:48:23;;;;;;;4;3.6;;;;;;;25.05;45.21973;934.2222;;;;
2023/06/10 05:50:53;;;;;;;4.5;3.8;;;;;;;25.57;44.26758;934.1595;;;;
2023/06/10 05:53:21;;;;;;;3.8;3.4;;;;;;;25.07;45.03418;934.1351;;;;
2023/06/10 05:55:46;;;;;;;4.2;3.8;;;;;;;24.65;46.81934;934.1213;;;;
2023/06/10 05:58:12;;;;;;;3.7;3.3;;;;;;;25.02;47.15332;934.1497;;;;
2023/06/10 06:00:39;;;;;;;4.3;3.6;;;;;;;25.62;45.60938;934.1174;;;;
2023/06/10 06:03:04;;;;;;;4.3;3.9;;;;;;;24.67;46.13672;934.154;;;;
2023/06/10 06:05:34;;;;;;;4.1;3.7;;;;;;;25.76;45.17383;934.1243;;;;
2023/06/10 06:07:57;;;;;;;4.8;3.4;;;;;;;26.69;43.64551;934.1326;;;;
2023/06/10 06:10:30;;;;;;;5.4;3.5;;;;;;;26.95;42.52148;934.086;;;;
2023/06/10 06:12:59;;;;;;;4.5;3.7;;;;;;;27.25;42.0166;934.0953;;;;
2023/06/10 06:15:24;;;;;;;3.5;3.2;;;;;;;27.37;41.78906;934.0948;;;;
2023/06/10 06:17:55;;;;;;;3.7;3.4;;;;;;;27.8;40.1084;934.1103;;;;
2023/06/10 06:20:19;;;;;;;4.2;3.3;;;;;;;27.7;41.33398;934.1548;;;;
2023/06/10 06:22:46;;;;;;;4.3;3.5;;;;;;;28.18;39.96387;934.1484;;;;
2023/06/10 06:25:12;;;;;;;4;3.5;;;;;;;27.67;41.72266;934.1165;;;;
2023/06/10 06:27:39;;;;;;;4;3.6;;;;;;;26.93;46.39355;934.1072;;;;
2023/06/10 06:30:04;;;;;;;4.4;3.9;;;;;;;27.47;43.87598;934.1392;;;;
2023/06/10 06:32:31;;;;;;;4.7;4.2;;;;;;;27.12;44.48047;934.092;;;;
2023/06/10 06:34:56;;;;;;;5.6;3.6;;;;;;;26.79;44.62598;934.0547;;;;
2023/06/10 06:37:24;;;;;;;5.6;3.9;;;;;;;26.51;44.05371;934.075;;;;
2023/06/10 06:39:49;;;;;;;4.6;3.7;;;;;;;26.43;45.44238;934.1075;;;;
2023/06/10 06:42:16;;;;;;;5.1;3.6;;;;;;;26.03;46.60938;934.1649;;;;
2023/06/10 06:44:42;;;;;;;4.3;3.7;;;;;;;25.27;46.56641;934.2299;;;;
2023/06/10 06:47:11;;;;;;;4.4;3.6;;;;;;;26.83;44.02637;934.2051;;;;
2023/06/10 06:49:36;;;;;;;3.8;3.4;;;;;;;26.6;43.6123;934.2473;;;;
2023/06/10 06:52:05;;;;;;;6.8;3.6;;;;;;;25.88;46.60449;934.3315;;;;
2023/06/10 06:54:30;;;;;;;4.3;3.8;;;;;;;24.8;48.48633;934.3247;;;;
2023/06/10 06:56:58;;;;;;;5.5;3.5;;;;;;;25.26;48.12305;934.325;;;;
2023/06/10 06:59:25;;;;;;;4;3.6;;;;;;;24.84;49.5293;934.3373;;;;
2023/06/10 07:01:53;;;;;;;5.8;4;;;;;;;24.96;49.64746;934.35;;;;
2023/06/10 07:04:19;;;;;;;4.4;3.5;;;;;;;24.16;47.875;934.3543;;;;
2023/06/10 07:06:46;;;;;;;4.6;3.6;;;;;;;26.12;45.3291;934.2954;;;;
2023/06/10 07:09:11;;;;;;;5.3;3.6;;;;;;;25.36;46.2207;934.2764;;;;
2023/06/10 07:11:40;;;;;;;4;3.6;;;;;;;25.73;47.71094;934.3445;;;;
2023/06/10 07:14:07;;;;;;;4.6;4.1;;;;;;;25.77;47.3623;934.3198;;;;
2023/06/10 07:16:32;;;;;;;4.2;3.8;;;;;;;26.82;44.61719;934.3169;;;;
2023/06/10 07:18:57;;;;;;;4.9;4.2;;;;;;;26.83;45.70898;934.3081;;;;
2023/06/10 07:21:23;;;;;;;3.9;3.6;;;;;;;26.34;45.46875;934.2798;;;;
2023/06/10 07:23:57;;;;;;;4.8;4.3;;;;;;;25.58;48.87891;934.2751;;;;
2023/06/10 07:26:22;;;;;;;6.3;4;;;;;;;25.86;47.79785;934.2092;;;;
2023/06/10 07:28:52;;;;;;;4.8;4.3;;;;;;;25.76;45.77637;934.2358;;;;
2023/06/10 07:31:17;;;;;;;4.6;3.9;;;;;;;23.53;50.91211;934.2833;;;;
2023/06/10 07:34:13;;;;;;;4.6;4.2;;;;;;;24.05;52.14746;934.2508;;;;
2023/06/10 07:36:42;;;;;;;5.1;4.4;;;;;;;25.93;46.82422;934.2989;;;;
2023/06/10 07:39:08;;;;;;;5;4.6;;;;;;;26.83;45.99316;934.3359;;;;
2023/06/10 07:41:33;;;;;;;6.1;4.4;;;;;;;27.2;44.96289;934.2826;;;;
2023/06/10 07:43:59;;;;;;;5.9;4.7;;;;;;;26.24;46.97461;934.2583;;;;
2023/06/10 07:46:24;;;;;;;4.2;3.8;;;;;;;27.13;44.44824;934.3321;;;;
2023/06/10 07:48:52;;;;;;;4.7;3.9;;;;;;;30.23;39.28516;934.3105;;;;
2023/06/10 07:51:17;;;;;;;4.3;3.9;;;;;;;29.87;37.21484;934.2639;;;;
2023/06/10 07:53:42;;;;;;;4.4;4;;;;;;;27.11;45.54785;934.2728;;;;
2023/06/10 07:56:07;;;;;;;4.4;3.9;;;;;;;26.62;45.93652;934.2899;;;;
2023/06/10 07:58:36;;;;;;;4.3;3.8;;;;;;;27.66;43.62012;934.2484;;;;
2023/06/10 08:01:01;;;;;;;4.6;3.8;;;;;;;29.67;38.29688;934.2222;;;;
2023/06/10 08:03:31;;;;;;;5.2;3.7;;;;;;;29.51;38.79492;934.2292;;;;
2023/06/10 08:05:56;;;;;;;4.7;4;;;;;;;30.14;39.18359;934.1877;;;;
2023/06/10 08:08:23;;;;;;;4.4;3.5;;;;;;;29.68;37.66406;934.2004;;;;
2023/06/10 08:10:49;;;;;;;5.2;3.8;;;;;;;30.41;36.35254;934.1443;;;;
2023/06/10 08:13:19;;;;;;;5.3;4.4;;;;;;;31.1;35.70215;934.1236;;;;
2023/06/10 08:15:44;;;;;;;5.2;3.9;;;;;;;31.05;35.57813;934.1675;;;;
2023/06/10 08:18:12;;;;;;;4.6;3.8;;;;;;;31.43;35.17773;934.1324;;;;
2023/06/10 08:20:37;;;;;;;5.5;3.9;;;;;;;31.73;35.33203;934.0787;;;;
2023/06/10 08:23:08;;;;;;;4.1;3.7;;;;;;;30.8;35.94141;934.1356;;;;
2023/06/10 08:25:37;;;;;;;4.6;3.7;;;;;;;30.78;35.30664;934.0734;;;;
2023/06/10 08:28:02;;;;;;;4.2;3.6;;;;;;;29.58;38.2168;934.0463;;;;
2023/06/10 08:30:31;;;;;;;5.8;4;;;;;;;28.75;40.34766;934.1113;;;;
2023/06/10 08:33:00;;;;;;;4.8;3.7;;;;;;;29.19;39.42285;934.1539;;;;
2023/06/10 08:35:25;;;;;;;4.5;4.1;;;;;;;29.95;37.55664;934.1777;;;;
2023/06/10 08:37:52;;;;;;;5;3.9;;;;;;;30.09;37.60352;934.1295;;;;
2023/06/10 08:40:17;;;;;;;8.8;5.5;;;;;;;30.69;36.99609;934.1923;;;;
2023/06/10 08:42:45;;;;;;;12.6;9.3;;;;;;;31.23;36.09473;934.1244;;;;
2023/06/10 08:45:14;;;;;;;4.3;3.9;;;;;;;31.46;36.01758;934.0919;;;;
2023/06/10 08:47:42;;;;;;;4.3;4;;;;;;;30.43;37.10645;934.0804;;;;
2023/06/10 08:50:07;;;;;;;6.2;4.2;;;;;;;27.33;44.2998;934.014;;;;
2023/06/10 08:52:32;;;;;;;7.8;5.4;;;;;;;28.73;40.78613;934.0684;;;;
2023/06/10 08:54:58;;;;;;;6.3;4.1;;;;;;;28.07;40.58398;934.0513;;;;
2023/06/10 08:57:24;;;;;;;4.3;3.9;;;;;;;27.84;42.21289;933.9788;;;;
2023/06/10 08:59:49;;;;;;;4.5;3.8;;;;;;;28.33;42.17676;933.9588;;;;
2023/06/10 09:02:19;;;;;;;4.4;4;;;;;;;27.65;42.88477;933.9067;;;;
2023/06/10 09:04:42;;;;;;;4.6;3.7;;;;;;;28.7;40.41504;933.9286;;;;
2023/06/10 09:07:09;;;;;;;4;3.6;;;;;;;29.7;37.52344;933.9102;;;;
2023/06/10 09:09:34;;;;;;;4;3.6;;;;;;;28.49;40.88379;933.9744;;;;
2023/06/10 09:12:02;;;;;;;15.5;5;;;;;;;28.94;40.97266;933.9439;;;;
2023/06/10 09:14:27;;;;;;;4;3.6;;;;;;;28.92;40.21973;933.9578;;;;
2023/06/10 09:16:56;;;;;;;4.2;3.8;;;;;;;28.98;39.65332;933.9022;;;;
2023/06/10 09:19:21;;;;;;;5.7;3.9;;;;;;;28.26;40.96973;933.9272;;;;
2023/06/10 09:21:47;;;;;;;8.9;4.7;;;;;;;26.21;46.20215;933.942;;;;
2023/06/10 09:24:12;;;;;;;4.4;4;;;;;;;26.17;47.14453;933.899;;;;
2023/06/10 09:26:41;;;;;;;7;4.2;;;;;;;27.15;45.90723;933.834;;;;
2023/06/10 09:29:07;;;;;;;8.4;4.5;;;;;;;27.37;43.81836;933.8839;;;;
2023/06/10 09:31:31;;;;;;;5.1;4.2;;;;;;;27.51;44.37891;933.8503;;;;
2023/06/10 09:33:56;;;;;;;7.9;4.5;;;;;;;26.92;45.11328;933.8453;;;;
2023/06/10 09:36:26;;;;;;;5.6;4.3;;;;;;;27.23;44.97754;933.867;;;;
2023/06/10 09:38:52;;;;;;;8.4;4.7;;;;;;;26.66;47.7168;933.8391;;;;
2023/06/10 09:41:16;;;;;;;7;5;;;;;;;27.2;44.58398;933.8597;;;;
2023/06/10 09:43:42;;;;;;;6;4.4;;;;;;;26.67;46.64063;933.8549;;;;
2023/06/10 09:46:07;;;;;;;5.3;4.2;;;;;;;27.13;46.47461;933.8965;;;;
2023/06/10 09:48:35;;;;;;;4.9;4.4;;;;;;;26.64;46.9082;933.9152;;;;
2023/06/10 09:50:59;;;;;;;5.4;4.4;;;;;;;26.74;47.67676;933.9084;;;;
2023/06/10 09:53:25;;;;;;;4.7;4.2;;;;;;;26.66;47.53906;933.9326;;;;
2023/06/10 09:55:51;;;;;;;5.2;4.4;;;;;;;26.79;46.72461;933.9253;;;;
2023/06/10 09:58:16;;;;;;;6;4.6;;;;;;;25.59;52.6123;933.9416;;;;
2023/06/10 10:00:45;;;;;;;6.9;4.4;;;;;;;25.24;52.3584;933.9383;;;;
2023/06/10 10:03:20;;;;;;;6.7;5.1;;;;;;;25.13;52.28613;933.8633;;;;
2023/06/10 10:05:45;;;;;;;5.5;5;;;;;;;24.74;52.61914;933.8503;;;;
2023/06/10 10:08:17;;;;;;;5.8;4.8;;;;;;;25.25;50.53027;933.8821;;;;
2023/06/10 10:10:45;;;;;;;5.5;4.9;;;;;;;25.01;52.59082;933.9067;;;;
2023/06/10 10:13:10;;;;;;;6.2;4.8;;;;;;;25.07;52.38672;933.82;;;;
2023/06/10 10:15:41;;;;;;;6.7;4.9;;;;;;;24.7;53.62695;933.8723;;;;
2023/06/10 10:18:06;;;;;;;6.2;5.4;;;;;;;24.6;53.60449;933.8174;;;;
2023/06/10 10:20:34;;;;;;;5.7;4.8;;;;;;;24.74;53.46777;933.8344;;;;
2023/06/10 10:23:04;;;;;;;5.6;5.1;;;;;;;24.83;54.19727;933.8168;;;;
2023/06/10 10:25:29;;;;;;;6.5;4.9;;;;;;;24.92;52.23828;933.7682;;;;
2023/06/10 10:27:54;;;;;;;11.2;5.3;;;;;;;24.8;51.91797;933.7781;;;;
2023/06/10 10:30:19;;;;;;;7.4;4.8;;;;;;;25.21;50.25391;933.7977;;;;
2023/06/10 10:32:48;;;;;;;5.6;4.6;;;;;;;25.19;50.94824;933.7296;;;;
2023/06/10 10:35:15;;;;;;;6.4;4.5;;;;;;;25.25;52.15918;933.7722;;;;
2023/06/10 10:37:40;;;;;;;5.6;5;;;;;;;25.43;50.82227;933.7324;;;;
2023/06/10 10:40:05;;;;;;;5.6;4.7;;;;;;;25.46;50.67188;933.7422;;;;
2023/06/10 10:42:33;;;;;;;5.2;4.6;;;;;;;25.11;50.24219;933.6428;;;;
2023/06/10 10:45:02;;;;;;;6.4;4.9;;;;;;;24.73;51.55664;933.7343;;;;
2023/06/10 10:47:29;;;;;;;6.4;5.5;;;;;;;24.1;52.48535;933.7745;;;;
2023/06/10 10:49:58;;;;;;;5.8;4.7;;;;;;;24.07;52.92773;933.6809;;;;
2023/06/10 10:52:21;;;;;;;5.3;4.8;;;;;;;24.09;52.41309;933.7367;;;;
2023/06/10 10:54:47;;;;;;;5.6;5.1;;;;;;;24.17;51.83301;933.7572;;;;
2023/06/10 10:57:12;;;;;;;7.4;4.9;;;;;;;24.19;51.91699;933.723;;;;
2023/06/10 10:59:39;;;;;;;7.5;4.7;;;;;;;24.16;51.50195;933.6871;;;;
2023/06/10 11:02:07;;;;;;;6;4.7;;;;;;;24.09;51.11816;933.6895;;;;
2023/06/10 11:04:37;;;;;;;6.3;4.6;;;;;;;24.08;51.11719;933.6542;;;;
2023/06/10 11:07:03;;;;;;;5.3;4.6;;;;;;;24.04;50.2041;933.6614;;;;
2023/06/10 11:09:28;;;;;;;5.6;4.9;;;;;;;23.96;51.43164;933.6259;;;;
2023/06/10 11:11:55;;;;;;;5.7;5.1;;;;;;;24.13;52.24121;933.5784;;;;
2023/06/10 11:14:20;;;;;;;6.2;5;;;;;;;24.41;52.58008;933.5374;;;;
2023/06/10 11:16:47;;;;;;;5.5;4.9;;;;;;;24.62;51.02441;933.5903;;;;
2023/06/10 11:19:12;;;;;;;5.3;4.8;;;;;;;25;51.16211;933.4875;;;;
2023/06/10 11:21:40;;;;;;;6.5;4.9;;;;;;;25.52;49.28516;933.4658;;;;
2023/06/10 11:24:07;;;;;;;5.2;4.7;;;;;;;25.87;47.40723;933.4894;;;;
2023/06/10 11:26:35;;;;;;;5.2;4.7;;;;;;;26.03;47.625;933.5006;;;;
2023/06/10 11:29:00;;;;;;;5.1;4.6;;;;;;;26.09;46.17773;933.4957;;;;
2023/06/10 11:31:25;;;;;;;5.2;4.7;;;;;;;26.16;47.37891;933.4719;;;;
2023/06/10 11:33:50;;;;;;;5.5;4.8;;;;;;;26.15;44.72852;933.5159;;;;
2023/06/10 11:36:16;;;;;;;5;4.5;;;;;;;25.7;46.7998;933.4903;;;;
2023/06/10 11:38:41;;;;;;;6.3;4.8;;;;;;;25.29;48.47949;933.467;;;;
2023/06/10 11:41:08;;;;;;;5.3;4.8;;;;;;;25.74;48.11523;933.3985;;;;
2023/06/10 11:43:33;;;;;;;5.4;4.5;;;;;;;26.16;48.31445;933.4749;;;;
2023/06/10 11:46:02;;;;;;;5.7;4.7;;;;;;;25.55;46.45215;933.345;;;;
2023/06/10 11:48:28;;;;;;;6.6;5;;;;;;;25.23;48.5918;933.4636;;;;
2023/06/10 11:50:54;;;;;;;5.2;4.5;;;;;;;25.13;49.28809;933.4314;;;;
2023/06/10 11:53:19;;;;;;;9.1;5.1;;;;;;;24.95;50.09473;933.418;;;;
2023/06/10 11:55:46;;;;;;;8.6;5.4;;;;;;;24.57;51.91504;933.3931;;;;
2023/06/10 11:58:11;;;;;;;6.7;5.2;;;;;;;24.88;49.31934;933.485;;;;
2023/06/10 12:00:38;;;;;;;6.7;5.2;;;;;;;24.68;49.21582;933.447;;;;
2023/06/10 12:03:03;;;;;;;7.8;5.1;;;;;;;24.12;49.94336;933.4114;;;;
2023/06/10 12:05:28;;;;;;;6;5.2;;;;;;;23.76;51.52637;933.4005;;;;
2023/06/10 12:07:55;;;;;;;8.5;4.8;;;;;;;24.23;49.42578;933.4355;;;;
2023/06/10 12:10:20;;;;;;;5.7;4.8;;;;;;;24.27;50.4668;933.4617;;;;
2023/06/10 12:12:51;;;;;;;5.4;4.9;;;;;;;24.04;51.1582;933.4443;;;;
2023/06/10 12:15:17;;;;;;;8;5.4;;;;;;;24.31;50.12988;933.4261;;;;
2023/06/10 12:17:43;;;;;;;9.2;5;;;;;;;24.61;50.44531;933.3736;;;;
2023/06/10 12:20:08;;;;;;;6.2;4.9;;;;;;;24.29;51.0459;933.4241;;;;
2023/06/10 12:22:33;;;;;;;5.6;5.1;;;;;;;24.71;49.4209;933.3731;;;;
2023/06/10 12:24:59;;;;;;;10.5;4.9;;;;;;;25;47.89355;933.3516;;;;
2023/06/10 12:27:23;;;;;;;6.6;5;;;;;;;24.9;47.48242;933.3137;;;;
2023/06/10 12:29:49;;;;;;;5.1;4.6;;;;;;;25.09;47.93945;933.2592;;;;
2023/06/10 12:32:15;;;;;;;5.5;5;;;;;;;25.32;48.625;933.2704;;;;
2023/06/10 12:34:41;;;;;;;8.2;4.9;;;;;;;25.09;47.87988;933.2267;;;;
2023/06/10 12:37:13;;;;;;;5.5;4.8;;;;;;;25.34;49.80859;933.2374;;;;
2023/06/10 12:39:36;;;;;;;9.1;4.8;;;;;;;25.42;48.30469;933.2227;;;;
2023/06/10 12:42:01;;;;;;;7.6;4.6;;;;;;;25.56;49.0293;933.3398;;;;
2023/06/10 12:44:26;;;;;;;8.8;5.1;;;;;;;25.67;48.94629;933.3135;;;;
2023/06/10 12:46:51;;;;;;;7.2;4.8;;;;;;;25.73;48.44531;933.2921;;;;
2023/06/10 12:49:16;;;;;;;7.9;4.9;;;;;;;25.46;48.07324;933.1473;;;;
2023/06/10 12:51:46;;;;;;;8.8;5;;;;;;;25.69;47.71973;933.2733;;;;
2023/06/10 12:54:11;;;;;;;6.1;4.5;;;;;;;26.36;47.21191;933.28;;;;
2023/06/10 12:56:37;;;;;;;4.8;4.3;;;;;;;26.73;44.1709;933.2496;;;;
2023/06/10 12:59:02;;;;;;;7.5;4.5;;;;;;;26.3;45.63086;933.1758;;;;
2023/06/10 13:01:33;;;;;;;5.2;4.7;;;;;;;26.22;46.71094;933.2571;;;;
2023/06/10 13:04:02;;;;;;;7.4;4.6;;;;;;;26.66;46.49707;933.2278;;;;
2023/06/10 13:06:28;;;;;;;5.3;4.4;;;;;;;26.63;46.56445;933.2392;;;;
2023/06/10 13:08:52;;;;;;;4.8;4.1;;;;;;;27.03;43.80859;933.2701;;;;
2023/06/10 13:11:18;;;;;;;7.1;4.6;;;;;;;27.56;41.77148;933.288;;;;
2023/06/10 13:13:43;;;;;;;5.2;4.1;;;;;;;27.78;41.05664;933.3258;;;;
2023/06/10 13:16:14;;;;;;;14.5;4.9;;;;;;;28.14;39.72266;933.295;;;;
2023/06/10 13:18:45;;;;;;;4.7;4.2;;;;;;;28.27;42.15918;933.3225;;;;
2023/06/10 13:21:10;;;;;;;5;4.2;;;;;;;28.31;40.3916;933.2581;;;;
2023/06/10 13:23:36;;;;;;;4.7;4.1;;;;;;;28.13;40.64844;933.2131;;;;
2023/06/10 13:26:02;;;;;;;4.6;3.9;;;;;;;27.28;43.95117;933.2313;;;;
2023/06/10 13:28:28;;;;;;;5.1;3.7;;;;;;;27.19;42.33105;933.0477;;;;
2023/06/10 13:30:53;;;;;;;5.3;4;;;;;;;26.76;45.70117;933.2699;;;;
2023/06/10 13:33:19;;;;;;;5.4;3.8;;;;;;;27.04;44.22461;933.3108;;;;
2023/06/10 13:35:44;;;;;;;4.5;3.6;;;;;;;27.35;43.15234;933.2971;;;;
2023/06/10 13:38:12;;;;;;;5.1;3.7;;;;;;;27.43;43.8125;933.2339;;;;
2023/06/10 13:40:42;;;;;;;4.7;4;;;;;;;27.4;44.09375;933.3505;;;;
2023/06/10 13:43:07;;;;;;;5.7;4;;;;;;;26.78;42.12598;933.2972;;;;
2023/06/10 13:45:34;;;;;;;4.3;3.9;;;;;;;26.94;44.32129;933.4172;;;;
2023/06/10 13:47:59;;;;;;;4.9;3.8;;;;;;;26.5;44.45605;933.3021;;;;
2023/06/10 13:50:25;;;;;;;5;3.8;;;;;;;26.31;45.08789;933.4747;;;;
2023/06/10 13:52:50;;;;;;;4.9;3.7;;;;;;;25.9;46.18164;933.4408;;;;
2023/06/10 13:55:19;;;;;;;5.1;3.6;;;;;;;25.9;46.85547;933.4922;;;;
2023/06/10 13:57:42;;;;;;;4.2;3.6;;;;;;;25.92;45.3916;933.4046;;;;
2023/06/10 14:00:13;;;;;;;4;3.6;;;;;;;25.94;45.45313;933.4305;;;;
2023/06/10 14:02:38;;;;;;;5.1;3.6;;;;;;;26;45.82422;933.4322;;;;
2023/06/10 14:05:03;;;;;;;4;3.6;;;;;;;25.27;45.50293;933.4151;;;;
2023/06/10 14:07:28;;;;;;;6;3.9;;;;;;;24.88;48.28223;933.4352;;;;
2023/06/10 14:09:54;;;;;;;3.8;3.4;;;;;;;25.14;47.50781;933.4526;;;;
2023/06/10 14:12:19;;;;;;;3.6;3.3;;;;;;;24.89;48.58984;933.3434;;;;
2023/06/10 14:14:45;;;;;;;4.3;3.4;;;;;;;24.92;49.33691;933.4509;;;;
2023/06/10 14:17:10;;;;;;;4.5;3.8;;;;;;;24.78;49.91113;933.4647;;;;
2023/06/10 14:19:35;;;;;;;4.1;3.7;;;;;;;24.58;49.37012;933.4138;;;;
2023/06/10 14:22:02;;;;;;;4.3;3.7;;;;;;;24.96;48.55078;933.4807;;;;
2023/06/10 14:24:27;;;;;;;3.8;3.4;;;;;;;25.31;48.10352;933.5172;;;;
2023/06/10 14:26:58;;;;;;;4.1;3.8;;;;;;;25.05;48.7959;933.4547;;;;
2023/06/10 14:29:21;;;;;;;4.3;3.7;;;;;;;25.09;49.50781;933.4688;;;;
2023/06/10 14:31:48;;;;;;;4.1;3.7;;;;;;;25.16;49.20898;933.4885;;;;
2023/06/10 14:34:13;;;;;;;6.7;3.8;;;;;;;25.31;48.51758;933.4878;;;;
2023/06/10 14:36:41;;;;;;;4.1;3.4;;;;;;;25.36;47.82617;933.5146;;;;
2023/06/10 14:39:06;;;;;;;3.7;3.3;;;;;;;25.26;48.9375;933.5402;;;;
2023/06/10 14:41:31;;;;;;;4.7;3.5;;;;;;;24.99;50.11133;933.5206;;;;
2023/06/10 14:43:56;;;;;;;7.5;3.7;;;;;;;25.13;48.64063;933.5028;;;;
2023/06/10 14:46:23;;;;;;;4;3.2;;;;;;;25.3;48.00879;933.49;;;;
2023/06/10 14:48:49;;;;;;;6.4;3.5;;;;;;;25.45;48.0957;933.4844;;;;
2023/06/10 14:51:16;;;;;;;4.3;3.4;;;;;;;25.51;49.3418;933.4551;;;;
2023/06/10 14:53:41;;;;;;;3.7;3.4;;;;;;;25.53;47.82129;933.4988;;;;
2023/06/10 14:56:07;;;;;;;3.6;3.3;;;;;;;25.51;48.63379;933.4698;;;;
2023/06/10 14:58:32;;;;;;;5.4;3.3;;;;;;;25.61;48.16113;933.4671;;;;
2023/06/10 15:00:59;;;;;;;4.2;3.8;;;;;;;25.44;47.35059;933.4472;;;;
2023/06/10 15:03:24;;;;;;;3.8;3.4;;;;;;;25.44;48.9209;933.4794;;;;
2023/06/10 15:05:50;;;;;;;3.5;3.2;;;;;;;25.59;47.4375;933.4327;;;;
2023/06/10 15:08:15;;;;;;;5.1;3.8;;;;;;;25.43;49.46387;933.5114;;;;
2023/06/10 15:10:43;;;;;;;4.8;3.4;;;;;;;25.11;48.81445;933.4553;;;;
2023/06/10 15:13:08;;;;;;;3.9;3.3;;;;;;;25.1;48.41211;933.4719;;;;
2023/06/10 15:15:36;;;;;;;3.5;3.2;;;;;;;25.05;48.63086;933.4352;;;;
2023/06/10 15:18:02;;;;;;;4.1;3.3;;;;;;;25.12;49.94922;933.4807;;;;
2023/06/10 15:20:29;;;;;;;5;3.5;;;;;;;25.28;49.64746;933.4487;;;;
2023/06/10 15:22:54;;;;;;;4.7;3.7;;;;;;;25.57;49.17188;933.4149;;;;
2023/06/10 15:25:20;;;;;;;3.8;3.3;;;;;;;25.64;48.66016;933.3531;;;;
2023/06/10 15:27:44;;;;;;;4.7;3.5;;;;;;;25.48;46.54102;933.3633;;;;
2023/06/10 15:30:13;;;;;;;4.4;2.9;;;;;;;25.54;46.99414;933.2617;;;;
2023/06/10 15:32:38;;;;;;;3;2.7;;;;;;;25.6;47.24902;933.3496;;;;
2023/06/10 15:35:04;;;;;;;4.7;2.9;;;;;;;25.79;46.05273;933.3359;;;;
2023/06/10 15:37:31;;;;;;;4.1;2.7;;;;;;;25.85;45.47852;933.3672;;;;